Etusivu
METAR-TAF:

METAR-TAF

Lentoasemat :

Bangor, Maine, Yhdysvallat

Leveyspiiri: 44-47-50N, Pituuspiiri: 068-49-07W, korkeus merenpinnasta: 58 m

Tämänhetkinen sää

Tämä raportti tehtiin 16 minuuttia sitten, kello 07.53 UTC
Tuuli 4 kn lännestä
Lämpötila 2°C
Kosteus 75%
Ilmanpaine 1018 hPa
Näkyvyys: 16.1 km
selkeää

METAR: KBGR 010753Z 27004KT 10SM CLR 02/M02 A3007 RMK AO2 SLP184 T00221022

Aika: 04:09 (08:09 UTC)

Sääennuste

Tämä raportti tehtiin 2 tuntia ja 36 minuuttia sitten, kello 05.33 UTC
Ennuste voimassa 01. päivästä klo 06 UTC - 02. päivään klo 06 UTC
Tuuli 6 kn lännestä
Näkyvyys: 10 km
selkeää
From 01. päivästä klo 1600 UTC
Tuuli 8 kn lännestä/luoteesta
Näkyvyys: 10 km
Hajanaisia pilviä 6000 ft:n korkeudessa

TAF: KBGR 010533Z 0106/0206 28006KT P6SM SKC FM011600 29008KT P6SM SCT060

Säähavainnot ja -ennusteet yli 4000 lentoasemalta (METAR- ja TAF-raportit).

Käytössä olevat sääasemat on merkitty karttaan keltaisilla ja punaisilla pisteillä.

Aseta hiiri pisteen päälle nähdäksesi sääaseman nimen.

Klikkaa sitten nähdäksesi säähavainnot ja -ennusteet.

Kartan vaihtaminen: klikkaa mustalla rastilla varustettuja vihreitä pisteitä, niin voit zoomata sisään; viivalla varustettua vihreää pistettä, niin voit zoomata ulos tai vihreitä nuolia, niin pääset viereisille kartoille.


METAR-TAF: